Time;durP1;ratioP1;P1;durP2;ratioP2;P2;SDS_P1;SDS_P2;PMS_P1;PMS_P2;Temp;Humidity;BMP_temperature;BMP_pressure;BME280_temperature;BME280_humidity;BME280_pressure;Samples;Min_cycle;Max_cycle;Signal;HPM_P1;HPM_P2
2022/03/19 00:01:13;;;;;;;7.88;5.95;;;12.50;96.70;;;;;;4962070;28;20516;-77
2022/03/19 00:03:43;;;;;;;9.23;6.15;;;12.40;96.70;;;;;;4995360;28;20065;-77
2022/03/19 00:06:11;;;;;;;8.55;5.80;;;12.40;96.70;;;;;;4978500;28;20042;-77
2022/03/19 00:08:39;;;;;;;6.82;5.28;;;12.40;96.70;;;;;;4996390;28;20062;-77
2022/03/19 00:11:08;;;;;;;7.38;5.75;;;12.40;96.70;;;;;;4962558;28;20497;-77
2022/03/19 00:13:36;;;;;;;8.40;5.60;;;12.40;96.70;;;;;;4985183;28;20057;-77
2022/03/19 00:16:05;;;;;;;9.68;5.88;;;12.40;96.70;;;;;;4982569;28;20397;-77
2022/03/19 00:18:34;;;;;;;9.18;6.13;;;12.40;96.70;;;;;;4981091;28;20057;-77
2022/03/19 00:21:04;;;;;;;9.50;6.18;;;12.40;96.70;;;;;;4981112;28;20686;-78
2022/03/19 00:23:32;;;;;;;6.97;5.18;;;12.40;96.70;;;;;;4979561;28;20054;-77
2022/03/19 00:26:01;;;;;;;12.05;6.78;;;12.40;96.70;;;;;;4996453;28;20445;-77
2022/03/19 00:28:29;;;;;;;7.38;6.30;;;12.40;96.70;;;;;;4980251;28;20070;-77
2022/03/19 00:30:57;;;;;;;8.05;5.70;;;12.40;96.70;;;;;;4978018;28;20043;-77
2022/03/19 00:33:26;;;;;;;9.40;5.90;;;12.40;96.70;;;;;;4964268;28;20118;-78
2022/03/19 00:35:54;;;;;;;8.75;5.50;;;12.40;96.70;;;;;;5011825;28;20101;-78
2022/03/19 00:38:23;;;;;;;9.23;5.93;;;12.40;96.70;;;;;;4996204;28;20089;-78
2022/03/19 00:40:52;;;;;;;8.75;5.40;;;12.30;96.70;;;;;;4979481;28;20043;-78
2022/03/19 00:43:20;;;;;;;7.00;5.82;;;12.30;96.70;;;;;;4986119;28;20047;-77
2022/03/19 00:45:48;;;;;;;8.38;5.88;;;12.30;96.70;;;;;;4989513;28;20070;-78
2022/03/19 00:48:17;;;;;;;11.15;6.47;;;12.30;96.70;;;;;;4971302;28;20738;-78
2022/03/19 00:50:45;;;;;;;7.03;5.63;;;12.30;96.70;;;;;;4966996;28;20523;-78
2022/03/19 00:53:13;;;;;;;8.73;5.53;;;12.30;96.70;;;;;;4966999;28;20046;-78
2022/03/19 00:55:43;;;;;;;9.55;6.10;;;12.30;96.70;;;;;;5001775;28;20069;-78
2022/03/19 00:58:12;;;;;;;7.90;5.65;;;12.30;96.70;;;;;;4983181;28;20568;-77
2022/03/19 01:00:41;;;;;;;8.60;6.15;;;12.20;96.70;;;;;;5002286;28;20067;-78
2022/03/19 01:03:09;;;;;;;7.82;6.05;;;12.20;96.70;;;;;;4982516;28;20062;-77
2022/03/19 01:05:37;;;;;;;9.32;5.72;;;12.20;96.70;;;;;;4973527;28;20111;-78
2022/03/19 01:08:06;;;;;;;7.05;5.18;;;12.20;96.70;;;;;;4966744;28;20398;-77
2022/03/19 01:10:35;;;;;;;7.68;5.68;;;12.20;96.70;;;;;;4985260;28;20050;-77
2022/03/19 01:13:06;;;;;;;7.53;5.65;;;12.30;96.70;;;;;;5014022;28;20055;-77
2022/03/19 01:15:34;;;;;;;8.82;5.90;;;12.30;96.70;;;;;;4968309;28;20057;-78
2022/03/19 01:18:03;;;;;;;8.98;6.07;;;12.30;96.70;;;;;;4980547;28;21211;-78
2022/03/19 01:20:31;;;;;;;10.10;5.68;;;12.20;96.70;;;;;;4997815;28;20109;-78
2022/03/19 01:23:00;;;;;;;9.60;6.43;;;12.20;96.70;;;;;;4980870;28;20572;-78
2022/03/19 01:25:28;;;;;;;7.55;5.35;;;12.20;96.70;;;;;;4968540;28;20066;-79
2022/03/19 01:27:56;;;;;;;8.65;5.97;;;12.20;96.70;;;;;;5000817;28;20043;-77
2022/03/19 01:30:26;;;;;;;8.73;6.28;;;12.20;96.70;;;;;;4982177;28;20055;-78
2022/03/19 01:32:54;;;;;;;8.35;6.18;;;12.20;96.70;;;;;;5001112;28;20065;-77
2022/03/19 01:35:22;;;;;;;9.20;6.07;;;12.20;96.60;;;;;;4967496;28;20059;-78
2022/03/19 01:37:52;;;;;;;7.68;5.68;;;12.20;96.60;;;;;;4969202;28;20050;-78
2022/03/19 01:40:20;;;;;;;9.73;6.35;;;12.20;96.50;;;;;;4988700;28;20497;-78
2022/03/19 01:42:50;;;;;;;8.60;6.03;;;12.20;96.20;;;;;;5001032;28;20055;-78
2022/03/19 01:45:23;;;;;;;9.32;5.85;;;12.20;96.30;;;;;;4997341;28;20091;-78
2022/03/19 01:47:53;;;;;;;6.60;5.82;;;12.10;95.90;;;;;;4967560;28;20101;-78
2022/03/19 01:50:24;;;;;;;9.55;6.25;;;12.10;95.90;;;;;;4969441;28;20125;-78
2022/03/19 01:52:53;;;;;;;7.75;5.45;;;12.20;95.70;;;;;;4968169;28;20461;-78
2022/03/19 01:55:23;;;;;;;7.55;5.80;;;12.10;95.70;;;;;;4970982;28;20524;-78
2022/03/19 01:57:53;;;;;;;8.10;5.75;;;12.10;95.50;;;;;;5017646;28;20165;-84
2022/03/19 02:00:23;;;;;;;8.00;5.82;;;12.10;95.80;;;;;;4991239;28;20524;-84
2022/03/19 02:02:54;;;;;;;7.80;5.55;;;12.10;95.40;;;;;;5010035;28;20106;-82
2022/03/19 02:05:23;;;;;;;11.25;5.80;;;12.10;95.50;;;;;;4964047;28;20070;-84
2022/03/19 02:07:52;;;;;;;8.38;5.78;;;12.10;95.00;;;;;;4973461;28;20097;-82
2022/03/19 02:10:22;;;;;;;7.55;5.72;;;12.10;94.80;;;;;;4959955;28;20074;-83
2022/03/19 02:12:52;;;;;;;8.63;5.57;;;12.10;94.80;;;;;;5001801;28;20051;-84
2022/03/19 02:15:21;;;;;;;6.80;5.03;;;12.10;94.60;;;;;;4969816;28;20047;-85
2022/03/19 02:17:49;;;;;;;7.78;5.30;;;12.10;94.30;;;;;;4985982;28;20057;-84
2022/03/19 02:20:19;;;;;;;9.18;5.93;;;12.10;94.50;;;;;;4970661;28;20046;-83
2022/03/19 02:25:47;;;;;;;6.80;5.38;;;12.10;94.10;;;;;;4955431;28;20055;-84
2022/03/19 02:28:15;;;;;;;9.00;5.65;;;12.10;94.00;;;;;;5001966;28;20062;-83
2022/03/19 02:30:44;;;;;;;8.23;5.25;;;12.10;93.70;;;;;;5003579;28;20058;-85
2022/03/19 02:33:13;;;;;;;8.50;5.57;;;12.10;93.70;;;;;;4992064;28;20050;-85
2022/03/19 02:35:41;;;;;;;7.68;5.18;;;12.10;93.50;;;;;;4977354;28;20058;-85
2022/03/19 02:38:10;;;;;;;11.60;5.32;;;12.10;93.90;;;;;;4990314;28;20121;-84
2022/03/19 02:40:38;;;;;;;7.75;5.75;;;12.00;93.70;;;;;;5007129;28;20096;-85
2022/03/19 02:43:08;;;;;;;6.85;5.13;;;12.00;93.70;;;;;;4995702;28;20043;-85
2022/03/19 02:45:36;;;;;;;8.13;4.93;;;12.10;93.20;;;;;;5010718;28;20054;-84
2022/03/19 02:48:04;;;;;;;8.68;5.47;;;12.10;93.30;;;;;;4987898;28;20105;-85
2022/03/19 02:50:34;;;;;;;7.28;5.40;;;12.10;93.40;;;;;;4989065;28;20130;-85
2022/03/19 02:53:04;;;;;;;7.65;5.07;;;12.00;93.40;;;;;;5006493;28;20452;-85
2022/03/19 02:55:34;;;;;;;8.98;6.72;;;12.10;93.10;;;;;;5006016;28;20051;-84
2022/03/19 02:58:07;;;;;;;9.50;5.68;;;12.10;93.10;;;;;;4997274;28;20133;-84
2022/03/19 03:00:37;;;;;;;6.07;4.82;;;12.00;93.20;;;;;;5004565;28;20112;-85
2022/03/19 03:03:05;;;;;;;7.45;5.25;;;12.00;93.30;;;;;;5009552;28;20049;-85
2022/03/19 03:05:34;;;;;;;9.00;5.75;;;12.00;93.20;;;;;;4979071;28;20092;-85
2022/03/19 03:08:04;;;;;;;5.90;5.10;;;12.00;93.40;;;;;;4975139;28;20046;-85
2022/03/19 03:10:33;;;;;;;7.25;4.72;;;11.90;93.60;;;;;;4975680;28;20074;-85
2022/03/19 03:13:02;;;;;;;10.50;5.53;;;12.00;93.80;;;;;;4974644;28;20050;-85
2022/03/19 03:15:32;;;;;;;8.00;5.70;;;12.00;93.70;;;;;;5005711;28;20046;-85
2022/03/19 03:18:01;;;;;;;8.50;5.25;;;12.00;93.80;;;;;;4986782;28;20046;-85
2022/03/19 03:20:30;;;;;;;6.90;5.55;;;12.00;93.70;;;;;;4994158;28;20047;-85
2022/03/19 03:22:58;;;;;;;8.13;5.55;;;12.00;94.30;;;;;;5004796;28;20500;-85
2022/03/19 03:25:26;;;;;;;5.97;5.10;;;12.00;94.10;;;;;;4971882;28;20046;-85
2022/03/19 03:27:54;;;;;;;9.25;5.43;;;12.00;94.10;;;;;;4989225;28;20130;-84
2022/03/19 03:30:23;;;;;;;7.88;5.20;;;12.00;94.50;;;;;;4971754;28;20039;-83
2022/03/19 03:32:53;;;;;;;9.18;5.60;;;12.00;94.80;;;;;;4982244;28;20092;-83
2022/03/19 03:35:25;;;;;;;8.77;5.35;;;12.00;95.00;;;;;;4968781;28;20057;-85
2022/03/19 03:37:55;;;;;;;8.57;5.50;;;11.90;95.10;;;;;;4997163;28;20049;-84
2022/03/19 03:40:23;;;;;;;8.13;5.32;;;11.80;95.20;;;;;;4971895;28;20045;-85
2022/03/19 03:42:51;;;;;;;8.25;5.65;;;11.80;95.50;;;;;;4975624;28;20050;-86
2022/03/19 03:45:20;;;;;;;6.93;5.10;;;11.80;95.70;;;;;;5003884;28;20093;-85
2022/03/19 03:47:49;;;;;;;9.25;5.65;;;11.80;95.90;;;;;;5023850;28;20161;-85
2022/03/19 03:50:20;;;;;;;9.23;5.13;;;11.70;96.00;;;;;;4986817;28;20054;-85
2022/03/19 03:52:49;;;;;;;10.18;6.00;;;11.70;96.20;;;;;;4971278;28;20125;-86
2022/03/19 03:55:18;;;;;;;8.65;5.10;;;11.70;96.30;;;;;;4979303;28;20050;-83
2022/03/19 03:57:46;;;;;;;7.47;5.18;;;11.70;96.50;;;;;;5014272;28;20065;-85
2022/03/19 04:00:15;;;;;;;8.90;5.90;;;11.70;96.50;;;;;;4993346;28;20050;-85
2022/03/19 04:02:43;;;;;;;8.32;5.95;;;11.70;96.70;;;;;;4988561;28;20084;-83
2022/03/19 04:05:12;;;;;;;7.15;5.57;;;11.70;96.70;;;;;;4987401;28;20058;-85
2022/03/19 04:07:41;;;;;;;8.75;5.90;;;11.70;96.70;;;;;;4994829;28;20038;-85
2022/03/19 04:10:10;;;;;;;10.68;5.80;;;11.70;96.70;;;;;;4986903;28;20054;-83
2022/03/19 04:12:39;;;;;;;8.07;5.80;;;11.60;96.70;;;;;;4975470;28;20721;-85
2022/03/19 04:15:08;;;;;;;8.25;5.22;;;11.60;96.70;;;;;;4974483;28;20047;-86
2022/03/19 04:17:36;;;;;;;8.70;5.38;;;11.60;96.70;;;;;;4978695;28;20049;-86
2022/03/19 04:20:06;;;;;;;7.50;5.38;;;11.50;96.70;;;;;;4975980;28;21269;-85
2022/03/19 04:22:35;;;;;;;12.48;6.25;;;11.50;96.70;;;;;;4977755;28;20066;-84
2022/03/19 04:25:11;;;;;;;9.38;5.57;;;11.50;96.70;;;;;;4982217;28;20058;-85
2022/03/19 04:27:39;;;;;;;7.55;5.22;;;11.50;96.70;;;;;;5009981;28;20665;-85
2022/03/19 04:30:12;;;;;;;7.28;5.65;;;11.50;96.70;;;;;;4977289;28;20070;-84
2022/03/19 04:32:41;;;;;;;10.05;5.57;;;11.50;96.70;;;;;;4974908;28;20050;-85
2022/03/19 04:37:59;;;;;;;8.98;5.30;;;11.40;96.70;;;;;;4974789;28;20057;-85
2022/03/19 04:40:29;;;;;;;8.30;5.45;;;11.40;96.70;;;;;;4991837;28;20129;-85
2022/03/19 04:42:57;;;;;;;8.23;5.88;;;11.40;96.70;;;;;;4981940;28;20057;-84
2022/03/19 04:45:26;;;;;;;9.10;5.40;;;11.50;96.70;;;;;;5015162;28;20420;-85
2022/03/19 04:47:55;;;;;;;9.95;5.28;;;11.40;96.70;;;;;;4983488;28;20100;-85
2022/03/19 04:50:25;;;;;;;6.80;5.28;;;11.40;96.70;;;;;;4990798;28;20084;-83
2022/03/19 04:52:54;;;;;;;8.75;5.05;;;11.40;96.70;;;;;;4991900;28;20046;-85
2022/03/19 04:55:26;;;;;;;8.45;5.03;;;11.40;96.70;;;;;;4997233;28;20149;-85
2022/03/19 04:57:56;;;;;;;9.25;5.68;;;11.40;96.70;;;;;;5006552;28;20050;-84
2022/03/19 05:00:25;;;;;;;9.60;5.40;;;11.40;96.70;;;;;;4991503;28;20592;-85
2022/03/19 05:02:53;;;;;;;7.97;5.40;;;11.40;96.70;;;;;;5008005;28;20050;-85
2022/03/19 05:05:24;;;;;;;7.50;5.40;;;11.40;96.70;;;;;;4991325;28;20086;-83
2022/03/19 05:07:53;;;;;;;10.00;5.10;;;11.40;96.70;;;;;;5013016;28;20124;-85
2022/03/19 05:13:11;;;;;;;11.20;5.88;;;11.40;96.70;;;;;;4969792;28;20072;-85
2022/03/19 05:15:39;;;;;;;10.30;5.75;;;11.30;96.70;;;;;;5012998;28;20043;-85
2022/03/19 05:18:07;;;;;;;8.07;5.28;;;11.30;96.70;;;;;;4992484;28;20080;-77
2022/03/19 05:20:36;;;;;;;12.93;5.88;;;11.20;96.70;;;;;;4991312;28;20050;-78
2022/03/19 05:23:06;;;;;;;9.38;5.93;;;11.20;96.70;;;;;;4986786;28;20038;-78
2022/03/19 05:25:35;;;;;;;6.47;4.90;;;11.30;96.70;;;;;;4995940;28;20129;-77
2022/03/19 05:28:03;;;;;;;10.65;5.75;;;11.20;96.70;;;;;;4987423;28;20047;-79
2022/03/19 05:30:53;;;;;;;8.45;5.70;;;11.30;96.70;;;;;;4987546;28;20054;-78
2022/03/19 05:34:29;;;;;;;8.00;5.43;;;11.30;96.70;;;;;;5001435;28;20672;-78
2022/03/19 05:36:13;;;;;;;8.90;5.10;;;11.20;96.70;;;;;;4987763;28;20089;-77
2022/03/19 05:38:41;;;;;;;7.15;5.45;;;11.30;96.70;;;;;;5001363;28;20065;-78
2022/03/19 05:41:10;;;;;;;6.85;5.40;;;11.30;96.70;;;;;;4969171;28;20042;-78
2022/03/19 05:43:38;;;;;;;8.73;5.13;;;11.20;96.70;;;;;;4971138;28;20061;-77
2022/03/19 05:46:08;;;;;;;10.77;5.40;;;11.20;96.40;;;;;;4972046;28;20046;-78
2022/03/19 05:48:36;;;;;;;8.52;5.05;;;11.20;96.50;;;;;;4988412;28;20049;-78
2022/03/19 05:51:05;;;;;;;13.30;5.75;;;11.20;96.70;;;;;;4985270;28;20046;-78
2022/03/19 05:53:37;;;;;;;8.77;5.00;;;11.20;96.70;;;;;;4974150;28;20050;-78
2022/03/19 05:56:05;;;;;;;9.40;5.53;;;11.20;96.50;;;;;;5002081;28;20683;-78
2022/03/19 05:58:33;;;;;;;10.07;5.82;;;11.20;96.10;;;;;;4992031;28;20112;-78
2022/03/19 06:01:02;;;;;;;7.40;5.13;;;11.10;96.50;;;;;;5003744;28;20038;-78
2022/03/19 06:03:32;;;;;;;6.70;5.15;;;11.20;96.60;;;;;;5001926;28;20065;-78
2022/03/19 06:06:00;;;;;;;10.27;5.75;;;11.20;96.70;;;;;;4983434;28;20046;-78
2022/03/19 06:08:28;;;;;;;6.40;5.13;;;11.20;96.50;;;;;;4968540;28;20527;-78
2022/03/19 06:10:58;;;;;;;7.10;5.18;;;11.20;96.70;;;;;;4984176;28;20041;-77
2022/03/19 06:13:31;;;;;;;8.20;5.30;;;11.20;96.70;;;;;;5000712;28;20057;-78
2022/03/19 06:15:59;;;;;;;11.23;5.72;;;11.20;96.60;;;;;;4988152;28;20491;-78
2022/03/19 06:18:28;;;;;;;10.70;5.00;;;11.30;96.70;;;;;;4969591;28;20058;-78
2022/03/19 06:20:59;;;;;;;8.93;5.20;;;11.30;96.70;;;;;;4968506;28;20050;-78
2022/03/19 06:23:27;;;;;;;8.60;5.03;;;11.30;96.70;;;;;;4969509;28;20110;-78
2022/03/19 06:25:55;;;;;;;7.65;5.28;;;11.30;96.70;;;;;;4985467;28;20042;-77
2022/03/19 06:28:24;;;;;;;9.02;5.72;;;11.20;96.70;;;;;;4970756;28;20393;-78
2022/03/19 06:30:52;;;;;;;8.95;4.82;;;11.30;96.70;;;;;;4969207;28;20161;-78
2022/03/19 06:33:20;;;;;;;7.93;5.10;;;11.30;96.70;;;;;;4972049;28;20093;-78
2022/03/19 06:38:40;;;;;;;10.55;5.55;;;11.30;96.70;;;;;;5004531;28;20058;-78
2022/03/19 06:41:11;;;;;;;9.38;4.93;;;11.30;96.70;;;;;;4987895;28;20050;-78
2022/03/19 06:43:39;;;;;;;9.77;5.72;;;11.30;96.70;;;;;;5006376;28;20405;-78
2022/03/19 06:46:08;;;;;;;9.50;5.57;;;11.30;96.70;;;;;;4978355;28;20416;-77
2022/03/19 06:48:36;;;;;;;9.18;5.55;;;11.30;96.70;;;;;;4984151;28;20054;-78
2022/03/19 06:51:03;;;;;;;8.27;5.65;;;11.30;96.70;;;;;;4988610;28;20061;-78
2022/03/19 06:53:32;;;;;;;12.48;5.68;;;11.40;96.70;;;;;;4971437;28;20081;-79
2022/03/19 06:56:03;;;;;;;9.30;5.47;;;11.30;96.70;;;;;;4973073;28;20042;-79
2022/03/19 06:58:32;;;;;;;8.88;5.70;;;11.40;96.70;;;;;;5002971;28;21016;-79
2022/03/19 07:01:01;;;;;;;12.45;5.90;;;11.40;96.70;;;;;;4970888;28;20052;-77
2022/03/19 07:03:29;;;;;;;8.43;5.72;;;11.50;96.70;;;;;;4967745;28;20515;-77
2022/03/19 07:05:57;;;;;;;8.05;6.07;;;11.50;96.70;;;;;;5007945;28;20071;-78
2022/03/19 07:08:46;;;;;;;8.57;5.45;;;11.60;96.70;;;;;;5000083;28;20046;-78
2022/03/19 07:11:15;;;;;;;8.57;5.47;;;11.60;96.70;;;;;;4971819;28;20177;-77
2022/03/19 07:13:43;;;;;;;9.00;5.82;;;11.70;96.70;;;;;;5002552;28;20144;-76
2022/03/19 07:16:12;;;;;;;7.95;5.82;;;11.70;96.70;;;;;;4989284;28;20049;-77
2022/03/19 07:18:40;;;;;;;9.45;5.93;;;11.70;96.70;;;;;;4967007;28;21048;-79
2022/03/19 07:21:08;;;;;;;8.82;5.60;;;11.80;96.70;;;;;;5019617;28;20061;-77
2022/03/19 07:23:36;;;;;;;9.10;6.00;;;11.80;96.70;;;;;;4999627;28;20046;-75
2022/03/19 07:26:05;;;;;;;8.30;5.55;;;11.80;96.70;;;;;;4988423;28;20104;-76
2022/03/19 07:28:34;;;;;;;9.05;5.97;;;11.80;96.70;;;;;;4984992;28;20038;-76
2022/03/19 07:31:03;;;;;;;9.07;6.30;;;11.80;96.70;;;;;;4985938;28;20417;-78
2022/03/19 07:33:34;;;;;;;7.47;5.88;;;11.80;96.70;;;;;;4977939;28;20042;-80
2022/03/19 07:36:02;;;;;;;11.43;5.70;;;11.90;96.70;;;;;;5000268;28;20063;-76
2022/03/19 07:38:33;;;;;;;13.23;6.70;;;12.00;96.70;;;;;;4977543;28;20870;-76
2022/03/19 07:43:49;;;;;;;9.00;6.53;;;12.00;96.70;;;;;;4964264;28;20042;-78
2022/03/19 07:46:18;;;;;;;10.32;6.57;;;12.10;96.70;;;;;;4980252;28;20421;-76
2022/03/19 07:48:46;;;;;;;9.57;6.82;;;12.20;96.70;;;;;;4980374;28;20129;-77
2022/03/19 07:51:15;;;;;;;8.73;6.45;;;12.30;96.70;;;;;;4996994;28;20055;-76
2022/03/19 07:53:43;;;;;;;10.43;6.53;;;12.30;96.70;;;;;;4996875;28;20143;-76
2022/03/19 07:56:12;;;;;;;11.68;6.20;;;12.30;96.70;;;;;;4978880;28;20043;-76
2022/03/19 07:58:40;;;;;;;9.13;6.88;;;12.30;96.70;;;;;;5000093;28;20556;-77
2022/03/19 08:01:10;;;;;;;11.77;7.15;;;12.40;96.70;;;;;;4978473;28;20062;-76
2022/03/19 08:03:38;;;;;;;8.70;5.95;;;12.50;96.70;;;;;;4967096;28;20089;-75
2022/03/19 08:06:08;;;;;;;8.52;6.05;;;12.50;96.40;;;;;;4994109;28;20051;-76
2022/03/19 08:08:37;;;;;;;9.15;6.32;;;12.60;96.50;;;;;;4967277;28;20049;-76
2022/03/19 08:11:07;;;;;;;10.68;6.05;;;12.60;96.00;;;;;;4963582;28;20051;-77
2022/03/19 08:13:35;;;;;;;9.18;5.75;;;12.60;96.10;;;;;;5004520;28;20481;-77
2022/03/19 08:16:04;;;;;;;10.25;6.03;;;12.60;95.70;;;;;;4979454;28;20051;-76
2022/03/19 08:18:33;;;;;;;10.23;5.80;;;12.70;95.50;;;;;;4978928;28;20625;-75
2022/03/19 08:21:01;;;;;;;8.43;5.95;;;12.80;95.50;;;;;;4962587;28;20058;-76
2022/03/19 08:23:29;;;;;;;9.48;6.07;;;12.80;96.40;;;;;;4978432;28;20043;-76
2022/03/19 08:25:57;;;;;;;9.32;7.32;;;12.80;96.70;;;;;;4978983;28;20051;-76
2022/03/19 08:28:25;;;;;;;11.68;6.97;;;12.90;96.70;;;;;;4970534;28;20046;-76
2022/03/19 08:30:54;;;;;;;8.68;5.93;;;13.00;96.10;;;;;;4994388;28;20134;-75
2022/03/19 08:33:21;;;;;;;9.35;5.95;;;13.10;95.80;;;;;;4999110;28;25175;-75
2022/03/19 08:35:51;;;;;;;8.63;5.88;;;13.10;94.80;;;;;;4977674;28;20173;-75
2022/03/19 08:41:06;;;;;;;8.13;6.00;;;13.20;96.20;;;;;;4963004;28;20492;-75
2022/03/19 08:43:36;;;;;;;7.63;5.22;;;13.20;94.70;;;;;;4981950;28;20141;-76
2022/03/19 08:46:05;;;;;;;10.45;5.50;;;13.20;94.00;;;;;;4962650;28;20050;-76
2022/03/19 08:48:33;;;;;;;10.20;5.35;;;13.20;92.90;;;;;;4977151;28;20130;-76
2022/03/19 08:53:49;;;;;;;9.73;6.43;;;13.40;94.00;;;;;;4962697;28;20050;-76
2022/03/19 08:56:17;;;;;;;8.18;5.22;;;13.40;93.10;;;;;;4963689;28;20038;-76
2022/03/19 08:58:45;;;;;;;8.02;5.70;;;13.50;93.20;;;;;;4968167;28;20170;-77
2022/03/19 09:01:14;;;;;;;7.65;5.32;;;13.50;93.00;;;;;;4965119;28;20043;-77
2022/03/19 09:03:42;;;;;;;8.00;5.03;;;13.60;93.00;;;;;;4966479;28;20050;-76
2022/03/19 09:06:14;;;;;;;7.50;5.25;;;13.60;92.60;;;;;;4970128;28;20078;-75
2022/03/19 09:08:43;;;;;;;9.30;5.07;;;13.60;91.60;;;;;;4966363;28;20058;-75
2022/03/19 09:11:11;;;;;;;8.35;5.18;;;13.60;91.40;;;;;;4967826;28;20051;-76
2022/03/19 09:13:39;;;;;;;6.78;4.88;;;13.70;92.10;;;;;;4967150;28;20153;-76
2022/03/19 09:16:07;;;;;;;10.85;5.10;;;13.70;91.90;;;;;;4970777;28;20043;-76
2022/03/19 09:18:35;;;;;;;10.27;5.28;;;13.70;91.30;;;;;;4997522;28;20050;-75
2022/03/19 09:21:04;;;;;;;11.52;5.85;;;13.80;91.50;;;;;;4971573;28;20038;-75
2022/03/19 09:23:33;;;;;;;8.05;5.00;;;13.80;91.30;;;;;;4972279;28;20042;-76
2022/03/19 09:26:02;;;;;;;6.20;5.07;;;13.90;92.20;;;;;;4969036;28;20042;-76
2022/03/19 09:28:30;;;;;;;8.40;5.70;;;13.90;91.90;;;;;;4985389;28;20051;-75
2022/03/19 09:30:58;;;;;;;7.75;5.22;;;14.00;91.90;;;;;;4983198;28;20134;-75
2022/03/19 09:33:26;;;;;;;9.25;5.32;;;14.10;91.00;;;;;;4986541;28;20054;-75
2022/03/19 09:35:57;;;;;;;9.02;5.15;;;14.10;91.00;;;;;;4992047;28;20051;-75
2022/03/19 09:38:25;;;;;;;9.35;4.93;;;14.10;90.70;;;;;;4968537;28;20038;-74
2022/03/19 09:40:55;;;;;;;8.00;5.20;;;14.10;90.10;;;;;;4998728;28;20041;-75
2022/03/19 09:43:23;;;;;;;9.63;5.13;;;14.20;90.90;;;;;;4974562;28;20550;-76
2022/03/19 09:45:52;;;;;;;11.80;5.70;;;14.20;90.30;;;;;;4972215;28;21456;-75
2022/03/19 09:48:20;;;;;;;11.05;5.63;;;14.30;90.10;;;;;;4964686;28;20073;-75
2022/03/19 09:50:50;;;;;;;9.73;4.78;;;14.30;89.30;;;;;;4983886;28;20057;-75
2022/03/19 09:53:23;;;;;;;7.60;4.50;;;14.40;88.50;;;;;;4997047;28;20039;-74
2022/03/19 09:55:56;;;;;;;9.65;4.97;;;14.50;88.90;;;;;;4970232;28;20069;-75
2022/03/19 09:58:28;;;;;;;13.88;5.68;;;14.60;88.90;;;;;;4997000;28;20043;-77
2022/03/19 10:01:03;;;;;;;6.85;4.82;;;14.60;89.20;;;;;;4966554;28;20050;-75
2022/03/19 10:03:38;;;;;;;7.95;4.93;;;14.70;89.00;;;;;;4967471;28;20066;-75
2022/03/19 10:08:58;;;;;;;8.68;5.07;;;14.80;88.80;;;;;;4970561;28;20047;-83
2022/03/19 10:11:31;;;;;;;7.10;5.13;;;15.00;88.50;;;;;;4985133;28;20082;-84
2022/03/19 10:14:04;;;;;;;9.02;4.95;;;15.20;88.60;;;;;;5001495;28;20138;-83
2022/03/19 10:16:35;;;;;;;9.98;4.90;;;15.30;88.70;;;;;;5001307;28;20049;-81
2022/03/19 10:19:06;;;;;;;6.22;4.55;;;15.40;89.20;;;;;;4984873;28;20046;-80
2022/03/19 10:21:37;;;;;;;9.30;5.88;;;15.40;88.30;;;;;;4985492;28;20046;-81
2022/03/19 10:24:08;;;;;;;9.98;4.70;;;15.50;88.40;;;;;;4985095;28;20395;-82
2022/03/19 10:26:40;;;;;;;7.90;4.00;;;15.60;87.60;;;;;;4969173;28;20061;-82
2022/03/19 10:29:09;;;;;;;6.10;4.10;;;15.70;87.10;;;;;;5001607;28;20042;-82
2022/03/19 10:31:39;;;;;;;7.85;4.68;;;15.70;86.70;;;;;;4968984;28;20057;-81
2022/03/19 10:34:14;;;;;;;5.72;4.47;;;15.70;87.80;;;;;;4970936;28;20077;-81
2022/03/19 10:36:44;;;;;;;6.22;4.82;;;15.70;87.70;;;;;;4993786;28;20054;-81
2022/03/19 10:39:17;;;;;;;9.43;5.18;;;15.80;87.50;;;;;;4968890;28;20129;-82
2022/03/19 10:41:46;;;;;;;8.23;4.95;;;15.90;87.30;;;;;;4967999;28;20695;-80
2022/03/19 10:44:17;;;;;;;8.75;4.90;;;15.90;86.70;;;;;;4984559;28;20156;-80
2022/03/19 10:46:48;;;;;;;7.68;4.75;;;16.10;86.80;;;;;;4984766;28;20110;-80
2022/03/19 10:49:23;;;;;;;6.03;4.55;;;16.10;86.40;;;;;;4969525;28;20049;-80
2022/03/19 10:51:53;;;;;;;7.32;4.75;;;16.10;85.50;;;;;;4970109;28;20049;-80
2022/03/19 10:54:22;;;;;;;7.72;4.43;;;16.20;85.80;;;;;;4966649;28;20047;-80
2022/03/19 10:56:52;;;;;;;7.05;4.85;;;16.30;85.70;;;;;;4968656;28;20047;-79
2022/03/19 10:59:21;;;;;;;9.15;4.90;;;16.30;85.60;;;;;;4969206;28;20401;-80
2022/03/19 11:01:50;;;;;;;8.18;4.50;;;16.30;85.10;;;;;;4969449;28;20497;-79
2022/03/19 11:04:20;;;;;;;7.63;4.68;;;16.50;85.50;;;;;;4969620;28;20080;-80
2022/03/19 11:06:52;;;;;;;9.57;6.28;;;16.50;85.40;;;;;;4989198;28;20058;-80
2022/03/19 11:09:26;;;;;;;7.05;5.20;;;16.50;85.00;;;;;;4983590;28;20640;-81
2022/03/19 11:11:58;;;;;;;7.47;5.20;;;16.40;85.20;;;;;;4969719;28;20416;-81
2022/03/19 11:14:29;;;;;;;7.63;4.63;;;16.50;85.70;;;;;;4967569;28;20049;-80
2022/03/19 11:17:25;;;;;;;5.30;4.15;;;16.70;85.20;;;;;;4989791;28;20035;-80
2022/03/19 11:19:55;;;;;;;9.35;4.95;;;16.80;83.60;;;;;;5003157;28;20050;-81
2022/03/19 11:22:25;;;;;;;7.13;3.80;;;16.80;83.50;;;;;;4968039;28;20082;-80
2022/03/19 11:25:02;;;;;;;7.75;4.20;;;16.80;82.60;;;;;;4999196;28;20043;-80
2022/03/19 11:27:32;;;;;;;6.25;4.25;;;17.00;81.20;;;;;;4998107;28;20085;-74
2022/03/19 11:30:03;;;;;;;8.52;4.68;;;17.10;81.50;;;;;;4970871;28;20054;-76
2022/03/19 11:32:31;;;;;;;7.80;4.40;;;17.20;81.60;;;;;;4967423;28;20077;-77
2022/03/19 11:35:01;;;;;;;5.95;4.57;;;17.20;81.60;;;;;;4966276;28;20043;-78
2022/03/19 11:38:00;;;;;;;6.70;4.50;;;17.30;81.00;;;;;;5002547;28;20047;-81
2022/03/19 11:40:32;;;;;;;7.05;4.18;;;17.20;81.10;;;;;;4970348;28;20069;-78
2022/03/19 11:43:17;;;;;;;5.82;4.28;;;17.20;81.20;;;;;;4969422;28;20046;-80
2022/03/19 11:45:55;;;;;;;7.95;4.75;;;17.20;80.60;;;;;;4991377;28;20053;-76
2022/03/19 11:48:46;;;;;;;6.28;4.38;;;17.20;80.50;;;;;;5013798;28;20039;-77
2022/03/19 11:51:28;;;;;;;6.80;3.80;;;17.20;80.30;;;;;;4978886;28;20054;-79
2022/03/19 11:53:58;;;;;;;6.43;3.90;;;17.20;80.10;;;;;;4970150;28;20042;-76
2022/03/19 11:56:48;;;;;;;6.07;3.72;;;17.10;80.30;;;;;;4978640;28;20109;-79
2022/03/19 11:59:46;;;;;;;6.43;4.38;;;17.20;81.20;;;;;;5001808;28;20051;-78
2022/03/19 12:02:16;;;;;;;5.78;3.60;;;17.10;81.30;;;;;;4961575;28;20785;-78
2022/03/19 12:04:47;;;;;;;5.43;4.03;;;17.10;81.40;;;;;;4967960;28;20043;-78
2022/03/19 12:07:43;;;;;;;5.53;3.93;;;17.30;81.20;;;;;;4965770;28;20096;-77
2022/03/19 12:10:13;;;;;;;5.68;3.80;;;17.50;80.60;;;;;;5001504;28;20103;-77
2022/03/19 12:12:42;;;;;;;7.70;4.35;;;17.60;80.30;;;;;;4979763;28;20043;-78
2022/03/19 12:15:48;;;;;;;6.03;3.88;;;17.60;79.70;;;;;;4978871;28;20078;-78
2022/03/19 12:18:26;;;;;;;8.55;4.18;;;17.70;80.50;;;;;;4995218;28;20055;-79
2022/03/19 12:20:59;;;;;;;5.70;3.85;;;17.70;79.90;;;;;;4970922;28;20058;-78
2022/03/19 12:23:37;;;;;;;7.07;4.20;;;17.60;79.50;;;;;;5001090;28;20066;-79
2022/03/19 12:26:06;;;;;;;5.05;3.67;;;17.60;79.40;;;;;;4999398;28;20047;-77
2022/03/19 12:28:36;;;;;;;5.90;4.20;;;17.80;80.00;;;;;;4968927;28;20377;-78
2022/03/19 12:31:06;;;;;;;6.00;4.30;;;17.90;78.90;;;;;;5014912;28;20051;-79
2022/03/19 12:33:36;;;;;;;6.60;3.95;;;18.00;79.50;;;;;;4999359;28;20046;-79
2022/03/19 12:36:12;;;;;;;7.20;4.00;;;18.10;79.80;;;;;;4962897;28;20586;-78
2022/03/19 12:38:41;;;;;;;8.18;4.30;;;18.20;79.50;;;;;;4967163;28;20054;-78
2022/03/19 12:41:24;;;;;;;5.85;4.13;;;18.20;79.40;;;;;;4968576;28;20097;-79
2022/03/19 12:43:52;;;;;;;9.20;4.20;;;18.20;78.80;;;;;;5005514;28;20067;-78
2022/03/19 12:46:23;;;;;;;6.25;4.53;;;18.30;79.10;;;;;;5018684;28;20057;-77
2022/03/19 12:49:01;;;;;;;6.88;4.00;;;18.20;78.50;;;;;;5004525;28;20431;-79
2022/03/19 12:51:30;;;;;;;5.70;3.95;;;18.20;79.10;;;;;;5006079;28;20199;-77
2022/03/19 12:53:58;;;;;;;5.10;4.00;;;18.20;78.40;;;;;;4971856;28;20101;-79
2022/03/19 12:56:28;;;;;;;9.82;4.90;;;18.30;78.00;;;;;;5002736;28;20082;-77
2022/03/19 12:58:58;;;;;;;7.80;4.70;;;18.40;78.10;;;;;;4963333;28;20041;-79
2022/03/19 13:01:28;;;;;;;7.90;4.60;;;18.60;78.00;;;;;;4968542;28;20046;-80
2022/03/19 13:03:59;;;;;;;6.30;4.30;;;18.80;78.10;;;;;;5000032;28;20054;-79
2022/03/19 13:06:29;;;;;;;6.70;4.07;;;19.00;78.50;;;;;;4971394;28;20128;-80
2022/03/19 13:08:57;;;;;;;8.93;4.95;;;19.00;77.50;;;;;;5003325;28;20094;-80
2022/03/19 13:11:26;;;;;;;6.80;4.28;;;19.00;76.90;;;;;;4970586;28;20039;-85
2022/03/19 13:13:54;;;;;;;7.20;4.30;;;19.00;77.30;;;;;;4970890;28;20061;-84
2022/03/19 13:16:30;;;;;;;9.80;3.97;;;19.10;77.00;;;;;;5006285;28;20392;-83
2022/03/19 13:19:02;;;;;;;6.70;4.18;;;19.00;77.10;;;;;;4971713;28;20054;-83
2022/03/19 13:21:32;;;;;;;10.50;4.22;;;19.10;76.60;;;;;;4969945;28;20133;-81
2022/03/19 13:24:02;;;;;;;7.03;4.07;;;19.20;75.80;;;;;;4968028;28;20046;-78